Time;durP1;ratioP1;P1;durP2;ratioP2;P2;SDS_P1;SDS_P2;PMS_P1;PMS_P2;Temp;Humidity;BMP_temperature;BMP_pressure;BME280_temperature;BME280_humidity;BME280_pressure;Samples;Min_cycle;Max_cycle;Signal;HPM_P1;HPM_P2
2021/08/24 00:00:34;;;;;;;2.53;1.40;;;12.60;99.90;;;;;;5051315;28;20172;-84
2021/08/24 00:03:01;;;;;;;2.47;1.10;;;12.60;99.90;;;;;;5051258;28;20186;-83
2021/08/24 00:05:37;;;;;;;2.47;1.10;;;12.70;99.90;;;;;;5051606;28;20465;-83
2021/08/24 00:08:04;;;;;;;3.07;0.73;;;12.60;99.90;;;;;;5052917;28;20406;-83
2021/08/24 00:10:35;;;;;;;3.23;1.53;;;12.50;99.90;;;;;;5048084;28;20420;-86
2021/08/24 00:13:02;;;;;;;2.03;0.90;;;12.50;99.90;;;;;;5052588;28;20420;-83
2021/08/24 00:15:27;;;;;;;3.60;1.33;;;12.50;99.90;;;;;;5051284;28;20439;-83
2021/08/24 00:17:54;;;;;;;5.27;1.83;;;12.40;99.90;;;;;;5051121;28;20506;-86
2021/08/24 00:20:20;;;;;;;4.60;1.23;;;12.40;99.90;;;;;;5051103;28;20338;-83
2021/08/24 00:22:45;;;;;;;2.40;0.97;;;12.30;99.90;;;;;;5052667;28;20930;-83
2021/08/24 00:25:13;;;;;;;2.00;0.77;;;12.40;99.90;;;;;;5052504;28;20237;-83
2021/08/24 00:27:38;;;;;;;2.93;0.80;;;12.40;99.90;;;;;;5052636;28;20176;-82
2021/08/24 00:30:06;;;;;;;4.87;1.67;;;12.30;99.90;;;;;;5052546;28;20471;-83
2021/08/24 00:32:32;;;;;;;2.70;0.87;;;12.30;99.90;;;;;;5052269;28;20451;-85
2021/08/24 00:34:57;;;;;;;3.67;0.63;;;12.30;99.90;;;;;;5052563;28;20407;-86
2021/08/24 00:37:24;;;;;;;1.50;0.70;;;12.20;99.90;;;;;;5052613;28;20219;-83
2021/08/24 00:39:49;;;;;;;3.20;1.10;;;12.20;99.90;;;;;;5052503;28;20572;-83
2021/08/24 00:42:19;;;;;;;3.13;1.40;;;12.20;99.90;;;;;;5052522;28;20413;-83
2021/08/24 00:44:46;;;;;;;2.63;1.03;;;12.20;99.90;;;;;;5051207;28;20177;-83
2021/08/24 00:47:14;;;;;;;3.33;1.60;;;12.20;99.90;;;;;;5052205;28;20419;-86
2021/08/24 00:49:41;;;;;;;1.57;0.63;;;12.30;99.90;;;;;;5050977;28;20992;-83
2021/08/24 00:52:13;;;;;;;3.83;0.77;;;12.20;99.90;;;;;;5052234;28;20422;-84
2021/08/24 00:54:41;;;;;;;3.60;0.80;;;12.20;99.90;;;;;;5051101;28;21023;-83
2021/08/24 00:57:17;;;;;;;2.70;0.80;;;12.20;99.90;;;;;;5052419;28;20492;-84
2021/08/24 00:59:42;;;;;;;3.80;1.20;;;12.20;99.90;;;;;;5051145;28;20539;-83
2021/08/24 01:02:12;;;;;;;2.77;1.00;;;12.20;99.90;;;;;;5051917;28;20920;-83
2021/08/24 01:04:38;;;;;;;4.37;1.20;;;12.20;99.90;;;;;;5051052;28;20643;-83
2021/08/24 01:07:14;;;;;;;4.30;1.17;;;12.20;99.90;;;;;;5052279;28;20542;-84
2021/08/24 01:09:54;;;;;;;2.93;1.10;;;12.20;99.90;;;;;;5052509;28;20406;-83
2021/08/24 01:12:36;;;;;;;2.93;1.10;;;12.20;99.90;;;;;;5054788;28;20804;-84
2021/08/24 01:15:43;;;;;;;3.13;1.00;;;12.20;99.90;;;;;;5056024;28;20433;-84
2021/08/24 01:18:18;;;;;;;3.17;1.23;;;12.20;99.90;;;;;;5054312;28;20421;-84
2021/08/24 01:20:52;;;;;;;4.07;1.10;;;12.10;99.90;;;;;;5055740;28;20532;-83
2021/08/24 01:23:28;;;;;;;1.97;0.77;;;12.10;99.90;;;;;;5055845;28;20462;-83
2021/08/24 01:26:05;;;;;;;5.13;1.83;;;12.00;99.90;;;;;;5055683;28;20464;-83
2021/08/24 01:28:56;;;;;;;2.33;0.90;;;12.10;99.90;;;;;;5055609;28;20405;-83
2021/08/24 01:31:54;;;;;;;4.10;1.33;;;12.00;99.90;;;;;;5055299;28;20453;-83
2021/08/24 01:34:26;;;;;;;5.53;1.03;;;12.00;99.90;;;;;;5054549;28;20491;-85
2021/08/24 01:37:04;;;;;;;4.73;1.23;;;12.00;99.90;;;;;;5055587;28;20423;-83
2021/08/24 01:39:37;;;;;;;2.00;1.07;;;11.80;99.90;;;;;;5055728;28;20901;-83
2021/08/24 01:42:20;;;;;;;2.17;1.23;;;11.90;99.90;;;;;;5055549;28;20447;-84
2021/08/24 01:44:54;;;;;;;2.00;0.90;;;11.80;99.90;;;;;;5054050;28;20467;-84
2021/08/24 01:47:34;;;;;;;1.87;1.40;;;11.90;99.90;;;;;;5053709;28;20441;-83
2021/08/24 01:50:23;;;;;;;1.97;1.07;;;11.90;99.90;;;;;;5055253;28;20472;-83
2021/08/24 01:53:02;;;;;;;3.10;1.03;;;11.90;99.90;;;;;;5049619;28;20519;-84
2021/08/24 01:55:31;;;;;;;2.67;1.17;;;11.90;99.90;;;;;;5055252;28;20417;-84
2021/08/24 01:58:07;;;;;;;2.17;1.20;;;11.90;99.90;;;;;;5055283;28;20445;-84
2021/08/24 02:00:38;;;;;;;2.90;1.80;;;11.90;99.90;;;;;;5055109;28;20968;-84
2021/08/24 02:03:08;;;;;;;3.73;1.83;;;11.90;99.90;;;;;;5053653;28;20945;-84
2021/08/24 02:05:42;;;;;;;3.40;1.17;;;12.00;99.90;;;;;;5053888;28;20541;-84
2021/08/24 02:08:13;;;;;;;4.27;1.20;;;12.00;99.90;;;;;;5055124;28;20494;-83
2021/08/24 02:10:41;;;;;;;3.07;1.47;;;12.10;99.90;;;;;;5055197;28;20505;-83
2021/08/24 02:13:08;;;;;;;2.63;1.50;;;12.10;99.90;;;;;;5055408;28;20965;-86
2021/08/24 02:15:39;;;;;;;4.10;1.73;;;12.00;99.90;;;;;;5054886;28;20422;-85
2021/08/24 02:18:07;;;;;;;2.00;0.97;;;12.00;99.90;;;;;;5054667;28;20471;-85
2021/08/24 02:20:38;;;;;;;2.53;1.37;;;12.00;99.90;;;;;;5053578;28;20885;-85
2021/08/24 02:23:08;;;;;;;3.77;2.10;;;12.10;99.90;;;;;;5053162;28;20973;-85
2021/08/24 02:25:40;;;;;;;2.97;1.23;;;11.90;99.90;;;;;;5053349;28;20468;-84
2021/08/24 02:28:22;;;;;;;3.47;1.50;;;12.00;99.90;;;;;;5053411;28;20431;-84
2021/08/24 02:30:58;;;;;;;3.90;1.37;;;11.90;99.90;;;;;;5054177;28;20859;-83
2021/08/24 02:33:29;;;;;;;2.53;1.73;;;11.90;99.90;;;;;;5053270;28;20449;-84
2021/08/24 02:35:57;;;;;;;4.10;1.67;;;12.00;99.90;;;;;;5054410;28;20761;-84
2021/08/24 02:38:26;;;;;;;3.43;1.00;;;11.90;99.90;;;;;;5054394;28;20951;-84
2021/08/24 02:41:01;;;;;;;2.27;1.17;;;12.00;99.90;;;;;;5054243;28;20425;-84
2021/08/24 02:43:32;;;;;;;4.60;1.47;;;12.00;99.90;;;;;;5053434;28;20789;-84
2021/08/24 02:46:22;;;;;;;4.73;1.63;;;12.00;99.90;;;;;;5056514;28;20470;-86
2021/08/24 02:48:58;;;;;;;4.23;1.77;;;12.00;99.90;;;;;;5055963;28;20534;-85
2021/08/24 02:51:26;;;;;;;3.20;1.63;;;11.90;99.90;;;;;;5055171;28;20575;-85
2021/08/24 02:54:08;;;;;;;3.17;0.93;;;11.90;99.90;;;;;;5054867;28;20417;-84
2021/08/24 02:56:33;;;;;;;6.23;2.77;;;11.90;99.90;;;;;;5053286;28;20422;-86
2021/08/24 02:58:59;;;;;;;3.50;1.23;;;11.90;99.90;;;;;;5054011;28;20429;-86
2021/08/24 03:01:25;;;;;;;2.83;1.20;;;11.80;99.90;;;;;;5053652;28;20211;-85
2021/08/24 03:03:50;;;;;;;3.00;0.77;;;11.80;99.90;;;;;;5053966;28;20197;-86
2021/08/24 03:06:16;;;;;;;2.17;1.40;;;11.80;99.90;;;;;;5053729;28;20214;-87
2021/08/24 03:08:42;;;;;;;6.47;1.33;;;11.70;99.90;;;;;;5053779;28;20170;-86
2021/08/24 03:11:09;;;;;;;2.67;0.80;;;11.80;99.90;;;;;;5053831;28;20179;-86
2021/08/24 03:13:54;;;;;;;4.00;1.60;;;11.60;99.90;;;;;;5053753;28;20948;-87
2021/08/24 03:16:36;;;;;;;3.90;1.20;;;11.60;99.90;;;;;;5053336;28;20429;-87
2021/08/24 03:19:05;;;;;;;2.40;1.10;;;11.60;99.90;;;;;;5053612;28;20746;-86
2021/08/24 03:21:34;;;;;;;2.00;1.17;;;11.50;99.90;;;;;;5053447;28;20812;-86
2021/08/24 03:24:01;;;;;;;1.83;1.00;;;11.60;99.90;;;;;;5052374;28;20772;-87
2021/08/24 03:26:35;;;;;;;2.87;1.10;;;11.60;99.90;;;;;;5052220;28;20893;-87
2021/08/24 03:29:10;;;;;;;1.97;0.70;;;11.50;99.90;;;;;;5052195;28;20755;-87
2021/08/24 03:31:37;;;;;;;2.20;1.17;;;11.50;99.90;;;;;;5051792;28;20508;-87
2021/08/24 03:34:04;;;;;;;4.17;1.43;;;11.50;99.90;;;;;;5051687;28;20777;-85
2021/08/24 03:36:29;;;;;;;2.87;1.30;;;11.40;99.90;;;;;;5052061;28;20426;-86
2021/08/24 03:38:55;;;;;;;3.20;1.40;;;11.40;99.90;;;;;;5053351;28;20412;-86
2021/08/24 03:41:21;;;;;;;2.87;1.70;;;11.40;99.90;;;;;;5053318;28;20180;-86
2021/08/24 03:43:46;;;;;;;5.20;1.87;;;11.40;99.90;;;;;;5053320;28;20181;-86
2021/08/24 03:46:12;;;;;;;5.30;1.40;;;11.30;99.90;;;;;;5051624;28;20226;-86
2021/08/24 03:48:38;;;;;;;3.47;1.13;;;11.40;99.90;;;;;;5053013;28;20305;-86
2021/08/24 03:51:03;;;;;;;3.37;1.80;;;11.40;99.90;;;;;;5054174;28;20529;-85
2021/08/24 03:53:29;;;;;;;4.40;1.33;;;11.30;99.90;;;;;;5058223;28;20182;-86
2021/08/24 03:55:55;;;;;;;2.20;1.37;;;11.30;99.90;;;;;;5057801;28;20262;-85
2021/08/24 03:58:20;;;;;;;3.33;2.10;;;11.30;99.90;;;;;;5057773;28;20185;-86
2021/08/24 04:00:48;;;;;;;2.03;1.10;;;11.40;99.90;;;;;;5054583;28;20197;-85
2021/08/24 04:03:14;;;;;;;3.83;1.13;;;11.40;99.90;;;;;;5052179;28;20230;-84
2021/08/24 04:05:39;;;;;;;5.40;1.57;;;11.40;99.90;;;;;;5053254;28;20476;-85
2021/08/24 04:08:06;;;;;;;2.33;1.17;;;11.30;99.90;;;;;;5053109;28;20507;-84
2021/08/24 04:10:31;;;;;;;2.00;1.10;;;11.30;99.90;;;;;;5052852;28;20166;-85
2021/08/24 04:12:57;;;;;;;3.07;1.37;;;11.30;99.90;;;;;;5051893;28;20432;-85
2021/08/24 04:15:23;;;;;;;3.77;1.80;;;11.30;99.90;;;;;;5051143;28;20177;-87
2021/08/24 04:17:48;;;;;;;3.00;1.03;;;11.30;99.90;;;;;;5052798;28;20183;-86
2021/08/24 04:20:16;;;;;;;2.13;0.77;;;11.30;99.90;;;;;;5052876;28;20413;-86
2021/08/24 04:22:45;;;;;;;3.30;1.67;;;11.20;99.90;;;;;;5052832;28;20167;-86
2021/08/24 04:25:12;;;;;;;1.93;0.97;;;11.30;99.90;;;;;;5052612;28;20450;-87
2021/08/24 04:27:38;;;;;;;4.03;1.63;;;11.20;99.90;;;;;;5052823;28;20481;-87
2021/08/24 04:30:04;;;;;;;3.07;1.70;;;11.20;99.90;;;;;;5052618;28;20409;-86
2021/08/24 04:32:30;;;;;;;2.93;1.30;;;11.20;99.90;;;;;;5050924;28;20268;-86
2021/08/24 04:34:56;;;;;;;2.20;1.33;;;11.20;99.90;;;;;;5052678;28;20980;-87
2021/08/24 04:37:22;;;;;;;3.80;1.50;;;11.20;99.90;;;;;;5051262;28;20421;-87
2021/08/24 04:39:48;;;;;;;2.97;1.77;;;11.20;99.90;;;;;;5052732;28;20175;-86
2021/08/24 04:42:14;;;;;;;3.30;1.17;;;11.20;99.90;;;;;;5040049;28;20990;-86
2021/08/24 04:44:40;;;;;;;2.80;1.50;;;11.20;99.90;;;;;;5042629;28;20173;-86
2021/08/24 04:47:06;;;;;;;3.63;1.50;;;11.30;99.90;;;;;;5041667;28;20616;-86
2021/08/24 04:49:32;;;;;;;3.97;1.47;;;11.30;99.90;;;;;;5046480;28;20696;-87
2021/08/24 04:51:58;;;;;;;3.80;1.83;;;11.30;99.90;;;;;;5046085;28;20424;-86
2021/08/24 04:54:23;;;;;;;2.73;1.43;;;11.30;99.90;;;;;;5046831;28;20175;-87
2021/08/24 04:56:49;;;;;;;4.30;1.40;;;11.40;99.90;;;;;;5044915;28;20420;-86
2021/08/24 04:59:15;;;;;;;3.20;1.47;;;11.50;99.90;;;;;;5045013;28;20175;-86
2021/08/24 05:01:40;;;;;;;4.07;1.77;;;11.50;99.90;;;;;;5043337;28;20202;-87
2021/08/24 05:04:06;;;;;;;3.90;1.60;;;11.60;99.90;;;;;;5046308;28;20269;-87
2021/08/24 05:06:32;;;;;;;3.20;1.17;;;11.70;99.90;;;;;;5041614;28;20208;-87
2021/08/24 05:08:58;;;;;;;3.57;2.17;;;11.50;99.90;;;;;;5047398;28;20773;-87
2021/08/24 05:11:24;;;;;;;3.40;2.07;;;11.50;99.90;;;;;;5048518;28;20422;-86
2021/08/24 05:13:50;;;;;;;3.57;2.07;;;11.60;99.90;;;;;;5052741;28;20423;-88
2021/08/24 05:16:16;;;;;;;4.37;2.10;;;11.70;99.90;;;;;;5054967;28;20168;-86
2021/08/24 05:18:41;;;;;;;3.17;1.77;;;11.70;99.90;;;;;;5054252;28;20269;-86
2021/08/24 05:21:10;;;;;;;4.70;1.10;;;11.80;99.90;;;;;;5054810;28;20181;-86
2021/08/24 05:23:37;;;;;;;3.10;1.97;;;11.90;99.90;;;;;;5055965;28;20170;-86
2021/08/24 05:26:11;;;;;;;4.07;1.97;;;12.30;99.90;;;;;;5055685;28;20471;-87
2021/08/24 05:28:36;;;;;;;7.30;2.30;;;12.60;99.90;;;;;;5055794;28;20402;-86
2021/08/24 05:31:02;;;;;;;5.07;2.37;;;12.50;99.90;;;;;;5053982;28;20504;-86
2021/08/24 05:33:28;;;;;;;5.37;2.10;;;13.20;99.90;;;;;;5055664;28;20172;-86
2021/08/24 05:35:54;;;;;;;4.23;1.60;;;14.60;99.90;;;;;;5054246;28;20429;-87
2021/08/24 05:38:19;;;;;;;3.30;1.37;;;15.60;99.90;;;;;;5054188;28;20540;-84
2021/08/24 05:40:45;;;;;;;4.87;1.53;;;16.10;99.90;;;;;;5054184;28;20235;-83
2021/08/24 05:43:10;;;;;;;4.77;1.50;;;16.40;99.90;;;;;;5055361;28;20170;-83
2021/08/24 05:45:36;;;;;;;5.60;1.30;;;16.60;99.90;;;;;;5055014;28;20573;-84
2021/08/24 05:48:01;;;;;;;2.20;1.07;;;16.80;99.90;;;;;;5055022;28;20178;-84
2021/08/24 05:50:27;;;;;;;4.37;1.97;;;17.00;99.90;;;;;;5054134;28;20185;-85
2021/08/24 05:52:53;;;;;;;2.67;1.50;;;17.70;99.90;;;;;;5054103;28;20183;-85
2021/08/24 05:55:19;;;;;;;3.70;1.83;;;17.80;99.90;;;;;;5055149;28;20185;-84
2021/08/24 05:57:45;;;;;;;2.40;1.47;;;18.10;99.90;;;;;;5053426;28;20421;-84
2021/08/24 06:00:11;;;;;;;3.40;1.50;;;18.60;99.90;;;;;;5053500;28;20997;-84
2021/08/24 06:02:38;;;;;;;2.47;1.20;;;19.10;99.90;;;;;;5054988;28;20176;-84
2021/08/24 06:05:06;;;;;;;5.03;1.67;;;19.30;99.90;;;;;;5053779;28;20428;-85
2021/08/24 06:07:32;;;;;;;4.20;1.67;;;19.90;99.90;;;;;;5053729;28;20989;-84
2021/08/24 06:09:59;;;;;;;2.33;1.10;;;20.70;99.90;;;;;;5054864;28;20424;-85
2021/08/24 06:12:25;;;;;;;3.77;1.43;;;21.60;99.90;;;;;;5053602;28;20431;-84
2021/08/24 06:14:51;;;;;;;2.97;1.13;;;21.60;99.90;;;;;;5054865;28;20412;-84
2021/08/24 06:17:17;;;;;;;2.23;1.40;;;21.60;99.90;;;;;;5054348;28;20410;-85
2021/08/24 06:19:43;;;;;;;2.93;1.60;;;21.30;99.90;;;;;;5054805;28;20774;-84
2021/08/24 06:22:09;;;;;;;2.83;1.33;;;21.00;99.90;;;;;;5054794;28;20169;-85
2021/08/24 06:24:36;;;;;;;2.30;1.30;;;21.80;99.90;;;;;;5053402;28;20714;-84
2021/08/24 06:27:03;;;;;;;3.30;1.07;;;22.60;99.90;;;;;;5054620;28;20231;-84
2021/08/24 06:29:29;;;;;;;3.30;1.50;;;23.30;99.90;;;;;;5054420;28;20410;-84
2021/08/24 06:31:59;;;;;;;3.07;1.40;;;23.20;99.90;;;;;;5054034;28;20468;-86
2021/08/24 06:34:24;;;;;;;1.73;1.13;;;23.40;99.90;;;;;;5054533;28;20168;-85
2021/08/24 06:36:51;;;;;;;3.77;1.00;;;24.00;99.90;;;;;;5054357;28;20477;-85
2021/08/24 06:39:16;;;;;;;2.33;0.87;;;23.70;99.90;;;;;;5054413;28;20168;-84
2021/08/24 06:41:42;;;;;;;2.70;1.03;;;23.90;99.90;;;;;;5054571;28;20416;-85
2021/08/24 06:44:09;;;;;;;2.23;0.83;;;24.10;99.90;;;;;;5054151;28;20641;-85
2021/08/24 06:46:35;;;;;;;2.40;0.60;;;24.30;99.90;;;;;;5053828;28;20235;-87
2021/08/24 06:49:00;;;;;;;2.13;0.87;;;24.10;99.90;;;;;;5052776;28;21308;-86
2021/08/24 06:51:26;;;;;;;4.63;0.97;;;24.00;99.90;;;;;;5054279;28;20178;-88
2021/08/24 06:53:52;;;;;;;2.93;0.73;;;24.50;99.90;;;;;;5051091;28;20308;-87
2021/08/24 06:56:18;;;;;;;2.07;0.90;;;24.70;98.40;;;;;;5052722;28;20481;-87
2021/08/24 06:58:44;;;;;;;1.40;0.80;;;24.90;96.00;;;;;;5052804;28;20674;-88
2021/08/24 07:01:19;;;;;;;2.47;0.70;;;25.00;97.50;;;;;;5052305;28;20185;-87
2021/08/24 07:03:45;;;;;;;3.03;0.90;;;25.10;94.70;;;;;;5054204;28;20408;-88
2021/08/24 07:06:11;;;;;;;3.10;1.30;;;25.10;94.60;;;;;;5053847;28;20472;-88
2021/08/24 07:08:36;;;;;;;1.47;0.57;;;25.00;95.50;;;;;;5053053;28;20182;-88
2021/08/24 07:11:03;;;;;;;2.20;0.77;;;25.20;95.50;;;;;;5053829;28;20201;-88
2021/08/24 07:13:28;;;;;;;2.20;0.40;;;25.40;98.70;;;;;;5054006;28;20506;-88
2021/08/24 07:15:55;;;;;;;1.33;0.37;;;25.60;92.30;;;;;;5053553;28;20405;-87
2021/08/24 07:18:21;;;;;;;2.00;0.70;;;25.50;92.40;;;;;;5053742;28;20622;-87
2021/08/24 07:20:50;;;;;;;2.10;1.40;;;23.20;99.90;;;;;;5037572;28;20441;-86
2021/08/24 07:23:16;;;;;;;2.07;1.07;;;22.40;99.90;;;;;;5049197;28;20642;-87
2021/08/24 07:25:41;;;;;;;1.50;0.87;;;23.30;99.90;;;;;;5035999;28;20483;-85
2021/08/24 07:28:11;;;;;;;3.23;0.97;;;24.50;99.30;;;;;;5048977;28;20575;-85
2021/08/24 07:30:39;;;;;;;1.53;0.90;;;25.50;94.40;;;;;;5033175;28;20253;-86
2021/08/24 07:33:05;;;;;;;1.00;0.33;;;26.00;90.20;;;;;;5048348;28;20417;-86
2021/08/24 07:35:31;;;;;;;2.93;0.50;;;25.60;92.20;;;;;;5048901;28;20436;-87
2021/08/24 07:37:57;;;;;;;1.27;0.37;;;25.30;91.70;;;;;;5033517;28;20421;-87
2021/08/24 07:40:23;;;;;;;1.70;0.63;;;24.60;93.20;;;;;;5033798;28;20216;-88
2021/08/24 07:42:49;;;;;;;3.03;0.40;;;24.80;93.70;;;;;;5032152;28;20182;-87
2021/08/24 07:45:15;;;;;;;2.03;0.40;;;26.00;91.40;;;;;;5048430;28;20786;-87
2021/08/24 07:47:41;;;;;;;1.63;0.50;;;25.90;93.20;;;;;;5048632;28;20186;-87
2021/08/24 07:50:07;;;;;;;2.40;0.37;;;25.40;90.90;;;;;;5048843;28;20475;-86
2021/08/24 07:52:33;;;;;;;1.80;0.83;;;23.30;96.90;;;;;;5033773;28;20568;-88
2021/08/24 07:54:59;;;;;;;1.53;0.80;;;22.70;96.50;;;;;;5033448;28;20413;-89
2021/08/24 07:57:24;;;;;;;1.70;0.70;;;23.50;97.10;;;;;;5033275;28;20634;-88
2021/08/24 07:59:50;;;;;;;1.00;0.40;;;25.00;92.90;;;;;;5033135;28;20171;-89
2021/08/24 08:02:17;;;;;;;2.67;0.60;;;26.70;90.30;;;;;;5033181;28;20608;-89
2021/08/24 08:04:44;;;;;;;1.20;0.40;;;27.10;85.20;;;;;;5033168;28;20228;-88
2021/08/24 08:07:10;;;;;;;1.53;0.57;;;27.10;86.80;;;;;;5033056;28;20477;-86
2021/08/24 08:09:36;;;;;;;1.20;0.40;;;25.70;91.10;;;;;;5048395;28;20991;-86
2021/08/24 08:12:03;;;;;;;1.27;0.40;;;25.90;90.30;;;;;;5033387;28;20429;-89
2021/08/24 08:14:28;;;;;;;1.93;0.63;;;25.80;89.40;;;;;;5048510;28;20181;-89
2021/08/24 08:16:54;;;;;;;1.10;0.57;;;25.70;91.10;;;;;;5048844;28;20425;-88
2021/08/24 08:19:19;;;;;;;1.10;0.50;;;26.40;87.00;;;;;;5033065;28;20174;-89
2021/08/24 08:21:45;;;;;;;1.17;0.30;;;25.90;90.60;;;;;;5052078;28;20174;-88
2021/08/24 08:24:11;;;;;;;1.67;0.50;;;25.00;92.70;;;;;;5036212;28;20177;-87
2021/08/24 08:26:38;;;;;;;1.33;0.87;;;25.30;91.50;;;;;;5036469;28;20215;-87
2021/08/24 08:29:09;;;;;;;2.20;0.70;;;26.60;91.70;;;;;;5052085;28;20908;-87
2021/08/24 08:31:37;;;;;;;0.97;0.30;;;28.30;84.00;;;;;;5036757;28;20413;-88
2021/08/24 08:34:03;;;;;;;0.97;0.50;;;28.20;78.30;;;;;;5037175;28;20405;-88
2021/08/24 08:36:29;;;;;;;1.23;0.30;;;28.10;77.00;;;;;;5052246;28;20436;-88
2021/08/24 08:38:54;;;;;;;1.10;0.40;;;27.50;74.90;;;;;;5041279;28;20320;-90
2021/08/24 08:41:46;;;;;;;1.20;0.40;;;27.50;79.50;;;;;;5056548;28;20606;-89
2021/08/24 08:44:32;;;;;;;1.20;0.40;;;27.40;78.00;;;;;;5056925;28;20188;-91
2021/08/24 08:47:19;;;;;;;0.90;0.20;;;26.20;84.20;;;;;;5055985;28;20468;-90
2021/08/24 08:49:54;;;;;;;2.27;0.60;;;26.50;82.00;;;;;;5055784;28;20527;-91
2021/08/24 08:52:34;;;;;;;1.73;0.73;;;26.20;85.90;;;;;;5056719;28;20411;-88
2021/08/24 08:55:09;;;;;;;1.27;0.60;;;27.00;83.50;;;;;;5057978;28;20461;-93
2021/08/24 08:57:40;;;;;;;1.57;0.50;;;27.80;76.60;;;;;;5056440;28;20997;-86
2021/08/24 09:00:14;;;;;;;3.80;1.17;;;28.70;74.80;;;;;;5055834;28;20496;-86
2021/08/24 09:02:50;;;;;;;1.60;0.70;;;27.90;71.70;;;;;;5055393;28;20948;-85
2021/08/24 09:05:23;;;;;;;2.90;0.97;;;27.90;76.20;;;;;;5055606;28;20924;-86
2021/08/24 09:07:55;;;;;;;3.00;1.40;;;27.80;74.70;;;;;;5053048;28;20424;-85
2021/08/24 09:10:38;;;;;;;2.10;0.70;;;28.40;72.40;;;;;;5054630;28;20454;-85
2021/08/24 09:13:24;;;;;;;1.50;1.00;;;28.10;72.50;;;;;;5054856;28;20436;-86
2021/08/24 09:16:03;;;;;;;1.90;0.70;;;27.90;77.70;;;;;;5055862;28;20813;-86
2021/08/24 09:18:50;;;;;;;2.30;1.00;;;28.30;73.10;;;;;;5056113;28;20419;-85
2021/08/24 09:21:30;;;;;;;2.00;0.70;;;28.60;74.10;;;;;;5056046;28;20561;-87
2021/08/24 09:24:00;;;;;;;4.30;1.63;;;28.20;72.30;;;;;;5055955;28;20892;-86
2021/08/24 09:26:44;;;;;;;1.93;0.90;;;27.30;74.90;;;;;;5054562;28;20558;-85
2021/08/24 09:29:09;;;;;;;2.70;1.00;;;26.90;76.40;;;;;;5054536;28;20423;-86
2021/08/24 09:31:35;;;;;;;3.30;0.90;;;26.50;79.50;;;;;;5054696;28;20412;-85
2021/08/24 09:34:02;;;;;;;2.63;1.60;;;26.40;78.00;;;;;;5055384;28;20708;-86
2021/08/24 09:36:28;;;;;;;2.40;1.00;;;26.70;77.40;;;;;;5055529;28;20534;-85
2021/08/24 09:38:58;;;;;;;2.23;1.30;;;26.40;76.40;;;;;;5055544;28;20415;-85
2021/08/24 09:41:33;;;;;;;2.17;1.00;;;25.70;76.10;;;;;;5055534;28;20178;-85
2021/08/24 09:44:22;;;;;;;1.67;1.33;;;26.40;74.80;;;;;;5055551;28;20774;-85
2021/08/24 09:46:51;;;;;;;2.50;0.90;;;26.20;73.20;;;;;;5055087;28;20520;-85
2021/08/24 09:49:22;;;;;;;3.10;2.07;;;26.20;71.60;;;;;;5055224;28;20452;-86
2021/08/24 09:51:54;;;;;;;2.23;1.33;;;26.50;75.20;;;;;;5055394;28;20757;-86
2021/08/24 09:54:20;;;;;;;2.10;1.23;;;26.20;77.50;;;;;;5055394;28;20404;-86
2021/08/24 09:56:53;;;;;;;2.83;1.33;;;26.50;79.70;;;;;;5055230;28;20416;-85
2021/08/24 09:59:40;;;;;;;1.50;0.80;;;26.40;78.80;;;;;;5055238;28;20567;-86
2021/08/24 10:02:36;;;;;;;1.60;0.80;;;27.30;78.20;;;;;;5053827;28;20416;-86
2021/08/24 10:05:02;;;;;;;1.60;0.93;;;27.70;77.70;;;;;;5053797;28;20429;-85
2021/08/24 10:07:37;;;;;;;2.20;1.67;;;27.90;74.80;;;;;;5055100;28;20515;-85
2021/08/24 10:10:08;;;;;;;2.67;1.70;;;27.60;71.60;;;;;;5053848;28;20428;-86
2021/08/24 10:12:33;;;;;;;2.43;1.13;;;27.20;79.30;;;;;;5054928;28;20973;-85
2021/08/24 10:15:29;;;;;;;2.27;1.50;;;27.40;76.50;;;;;;5054683;28;20409;-85
2021/08/24 10:18:00;;;;;;;2.60;1.30;;;26.90;80.50;;;;;;5053647;28;20178;-86
2021/08/24 10:20:51;;;;;;;2.20;0.60;;;26.60;84.90;;;;;;5054843;28;20408;-85
2021/08/24 10:23:23;;;;;;;3.77;1.10;;;26.60;81.70;;;;;;5054768;28;20762;-85
2021/08/24 10:25:53;;;;;;;2.13;0.83;;;26.80;83.00;;;;;;5054760;28;20404;-86
2021/08/24 10:28:22;;;;;;;2.23;1.07;;;26.80;83.00;;;;;;5054624;28;20447;-85
2021/08/24 10:31:00;;;;;;;1.93;0.80;;;25.40;81.40;;;;;;5054303;28;20400;-85
2021/08/24 10:33:38;;;;;;;3.70;0.83;;;25.90;91.70;;;;;;5054461;28;20491;-85
2021/08/24 10:36:24;;;;;;;2.30;1.30;;;25.60;85.40;;;;;;5053208;28;20490;-85
2021/08/24 10:39:18;;;;;;;2.80;0.93;;;26.00;90.40;;;;;;5054451;28;20453;-85
2021/08/24 10:42:05;;;;;;;1.57;0.83;;;25.70;84.50;;;;;;5052403;28;20512;-86
2021/08/24 10:44:47;;;;;;;2.50;1.40;;;25.00;94.40;;;;;;5053855;28;20420;-86
2021/08/24 10:47:24;;;;;;;2.33;1.07;;;25.80;92.80;;;;;;5054241;28;20510;-86
2021/08/24 10:49:52;;;;;;;2.07;1.03;;;25.70;82.20;;;;;;5053945;28;20968;-86
2021/08/24 10:52:42;;;;;;;3.13;1.00;;;24.60;90.20;;;;;;5054288;28;20419;-86
2021/08/24 10:55:15;;;;;;;5.23;1.33;;;24.60;92.90;;;;;;5053893;28;20400;-86
2021/08/24 10:58:01;;;;;;;2.23;0.93;;;23.80;93.70;;;;;;5054076;28;20424;-85
2021/08/24 11:00:39;;;;;;;2.30;1.20;;;24.40;99.90;;;;;;5053668;28;20487;-85
2021/08/24 11:03:17;;;;;;;2.50;1.10;;;24.00;96.20;;;;;;5053941;28;20556;-85
2021/08/24 11:05:48;;;;;;;3.20;1.27;;;23.90;94.60;;;;;;5053954;28;20946;-85
2021/08/24 11:08:34;;;;;;;4.23;1.30;;;23.80;97.30;;;;;;5053983;28;20819;-85
2021/08/24 11:11:15;;;;;;;3.23;0.80;;;23.40;99.90;;;;;;5053646;28;20436;-85
2021/08/24 11:14:19;;;;;;;2.57;1.17;;;23.20;99.90;;;;;;5052878;28;20451;-85
2021/08/24 11:17:04;;;;;;;2.90;1.07;;;23.60;99.90;;;;;;5050446;28;20476;-84
2021/08/24 11:19:59;;;;;;;3.20;0.80;;;23.40;99.90;;;;;;5053752;28;20776;-85
2021/08/24 11:22:30;;;;;;;3.30;1.40;;;24.40;98.10;;;;;;5053779;28;20814;-86
2021/08/24 11:25:36;;;;;;;2.70;1.00;;;24.00;93.70;;;;;;5053731;28;20408;-85
2021/08/24 11:28:15;;;;;;;2.27;1.30;;;24.20;96.10;;;;;;5055612;28;20453;-85
2021/08/24 11:30:57;;;;;;;1.83;1.10;;;24.90;99.20;;;;;;5062065;28;20409;-85
2021/08/24 11:33:38;;;;;;;3.23;1.67;;;24.80;92.60;;;;;;5062322;28;20452;-85
2021/08/24 11:36:06;;;;;;;2.70;1.37;;;25.30;93.50;;;;;;5062087;28;20471;-85
2021/08/24 11:38:39;;;;;;;3.37;1.20;;;25.30;95.40;;;;;;5053331;28;20507;-85
2021/08/24 11:41:10;;;;;;;2.30;1.63;;;25.40;91.70;;;;;;5053373;28;20424;-85
2021/08/24 11:44:03;;;;;;;1.87;1.13;;;25.40;92.00;;;;;;5052327;28;20404;-85
2021/08/24 11:46:47;;;;;;;2.17;1.00;;;25.70;85.70;;;;;;5053353;28;20482;-85
2021/08/24 11:49:22;;;;;;;3.23;1.47;;;26.10;90.70;;;;;;5053206;28;20951;-86
2021/08/24 11:51:55;;;;;;;3.17;1.47;;;26.50;86.80;;;;;;5053290;28;20411;-86
2021/08/24 11:54:34;;;;;;;1.83;1.23;;;26.30;84.20;;;;;;5052983;28;20416;-86
2021/08/24 11:57:14;;;;;;;2.00;0.67;;;26.50;76.70;;;;;;5052307;28;20471;-85
2021/08/24 11:59:46;;;;;;;2.33;1.17;;;25.80;80.60;;;;;;5051521;28;20408;-85
2021/08/24 12:02:23;;;;;;;2.63;1.07;;;26.20;83.70;;;;;;5051874;28;20776;-86
2021/08/24 12:04:49;;;;;;;2.00;1.20;;;26.20;76.30;;;;;;5052942;28;20431;-86
2021/08/24 12:07:26;;;;;;;2.50;1.07;;;26.20;82.40;;;;;;5052933;28;20538;-86
2021/08/24 12:09:54;;;;;;;9.70;5.50;;;25.90;81.80;;;;;;5052888;28;20482;-86
2021/08/24 12:12:28;;;;;;;5.20;3.80;;;25.60;86.70;;;;;;5052783;28;20412;-85
2021/08/24 12:15:07;;;;;;;4.27;1.13;;;24.90;88.20;;;;;;5052540;28;20469;-86
2021/08/24 12:17:35;;;;;;;3.17;1.20;;;24.30;81.30;;;;;;5052860;28;20462;-85
2021/08/24 12:20:08;;;;;;;2.50;1.47;;;23.80;91.50;;;;;;5051539;28;20443;-86
2021/08/24 12:22:53;;;;;;;2.43;1.20;;;23.60;99.50;;;;;;5052688;28;20430;-86
2021/08/24 12:25:34;;;;;;;2.30;0.93;;;23.30;92.50;;;;;;5051485;28;20424;-85
2021/08/24 12:28:22;;;;;;;2.00;0.90;;;23.20;99.90;;;;;;5051486;28;20431;-85
2021/08/24 12:30:59;;;;;;;2.70;1.50;;;23.30;99.90;;;;;;5042573;28;20998;-86
2021/08/24 12:33:38;;;;;;;3.10;1.30;;;24.40;93.10;;;;;;5052561;28;20928;-85
2021/08/24 12:36:22;;;;;;;3.70;1.00;;;23.80;96.20;;;;;;5051358;28;21049;-86
2021/08/24 12:39:00;;;;;;;2.10;0.70;;;24.80;95.70;;;;;;5052661;28;20411;-85
2021/08/24 12:41:32;;;;;;;3.17;1.53;;;25.60;90.90;;;;;;5052578;28;20422;-85
2021/08/24 12:44:12;;;;;;;2.30;0.80;;;26.10;91.60;;;;;;5052285;28;20408;-86
2021/08/24 12:46:39;;;;;;;2.97;1.10;;;26.00;85.10;;;;;;5052556;28;20998;-86
2021/08/24 12:49:14;;;;;;;1.90;1.20;;;26.30;85.30;;;;;;5052296;28;20448;-85
2021/08/24 12:51:49;;;;;;;2.33;1.10;;;26.40;85.00;;;;;;5051373;28;20427;-86
2021/08/24 12:54:19;;;;;;;2.77;1.20;;;26.90;83.40;;;;;;5052691;28;20844;-86
2021/08/24 12:57:02;;;;;;;4.10;1.50;;;27.10;81.20;;;;;;5052257;28;20497;-85
2021/08/24 12:59:34;;;;;;;2.60;1.50;;;26.60;78.00;;;;;;5050854;28;20789;-85
2021/08/24 13:02:19;;;;;;;2.00;1.30;;;27.10;80.70;;;;;;5051168;28;20419;-86
2021/08/24 13:04:48;;;;;;;3.17;1.23;;;27.50;72.50;;;;;;5051097;28;20412;-86
2021/08/24 13:07:30;;;;;;;2.43;1.13;;;27.10;81.30;;;;;;5053136;28;20481;-85
2021/08/24 13:10:05;;;;;;;6.43;1.37;;;24.90;87.10;;;;;;5056224;28;20434;-85